Time;durP1;ratioP1;P1;durP2;ratioP2;P2;SDS_P1;SDS_P2;PMS_P1;PMS_P2;Temp;Humidity;BMP_temperature;BMP_pressure;BME280_temperature;BME280_humidity;BME280_pressure;Samples;Min_cycle;Max_cycle;Signal;HPM_P1;HPM_P2
2022/11/12 00:00:25;;;;;;;;;;;;;;;;;;941845;27;20236;-77
2022/11/12 00:00:59;;;;;;;;;;;;;;;;;;942086;27;20009;-78
2022/11/12 00:01:31;;;;;;;;;;;;;;;;;;941825;27;19908;-77
2022/11/12 00:02:01;;;;;;;;;;;;;;;;;;942395;27;19903;-78
2022/11/12 00:02:35;;;;;;;;;;;;;;;;;;942079;27;19908;-79
2022/11/12 00:03:06;;;;;;;;;;;;;;;;;;942261;27;19903;-79
2022/11/12 00:03:36;;;;;;;;;;;;;;;;;;942263;27;19908;-77
2022/11/12 00:04:10;;;;;;;;;;;;;;;;;;942071;27;20139;-77
2022/11/12 00:04:40;;;;;;;;;;;;;;;;;;942186;27;19903;-78
2022/11/12 00:05:11;;;;;;;;;;;;;;;;;;942059;27;19922;-77
2022/11/12 00:05:45;;;;;;;;;;;;;;;;;;941896;27;20204;-79
2022/11/12 00:06:16;;;;;;;;;;;;;;;;;;942459;27;19903;-79
2022/11/12 00:06:46;;;;;;;;;;;;;;;;;;942557;27;19907;-79
2022/11/12 00:07:20;;;;;;;;;;;;;;;;;;942117;27;20660;-79
2022/11/12 00:07:50;;;;;;;;;;;;;;;;;;942150;27;19914;-78
2022/11/12 00:08:21;;;;;;;;;;;;;;;;;;942066;27;19926;-77
2022/11/12 00:08:54;;;;;;;;;;;;;;;;;;942039;27;19904;-79
2022/11/12 00:09:25;;;;;;;;;;;;;;;;;;942153;27;19949;-78
2022/11/12 00:09:56;;;;;;;;;;;;;;;;;;942055;27;19919;-77
2022/11/12 00:10:26;;;;;;;;;;;;;;;;;;941976;27;19903;-79
2022/11/12 00:11:00;;;;;;;;;;;;;;;;;;942038;27;19918;-79
2022/11/12 00:11:30;;;;;;;;;;;;;;;;;;942087;27;19908;-79
2022/11/12 00:12:01;;;;;;;;;;;;;;;;;;942210;27;19907;-78
2022/11/12 00:12:35;;;;;;;;;;;;;;;;;;941947;27;19953;-79
2022/11/12 00:13:06;;;;;;;;;;;;;;;;;;943161;27;19919;-78
2022/11/12 00:13:36;;;;;;;;;;;;;;;;;;942527;27;19908;-77
2022/11/12 00:14:10;;;;;;;;;;;;;;;;;;942841;27;19908;-78
2022/11/12 00:14:40;;;;;;;;;;;;;;;;;;942310;27;19941;-79
2022/11/12 00:15:14;;;;;;;;;;;;;;;;;;941460;27;19914;-78
2022/11/12 00:15:47;;;;;;;;;;;;;;;;;;940976;27;19908;-78
2022/11/12 00:16:18;;;;;;;;;;;;;;;;;;941050;27;19907;-77
2022/11/12 00:16:49;;;;;;;;;;;;;;;;;;940950;27;19904;-77
2022/11/12 00:17:22;;;;;;;;;;;;;;;;;;941132;27;19964;-78
2022/11/12 00:17:52;;;;;;;;;;;;;;;;;;941075;27;19908;-77
2022/11/12 00:18:23;;;;;;;;;;;;;;;;;;941206;27;19907;-78
2022/11/12 00:18:56;;;;;;;;;;;;;;;;;;940943;27;19969;-79
2022/11/12 00:19:27;;;;;;;;;;;;;;;;;;941079;27;19918;-78
2022/11/12 00:19:58;;;;;;;;;;;;;;;;;;940953;27;19907;-79
2022/11/12 00:20:31;;;;;;;;;;;;;;;;;;940913;27;19960;-77
2022/11/12 00:21:02;;;;;;;;;;;;;;;;;;940874;27;19903;-78
2022/11/12 00:21:32;;;;;;;;;;;;;;;;;;941168;27;20112;-77
2022/11/12 00:22:06;;;;;;;;;;;;;;;;;;940994;27;19904;-77
2022/11/12 00:22:36;;;;;;;;;;;;;;;;;;941019;27;20143;-77
2022/11/12 00:23:07;;;;;;;;;;;;;;;;;;941096;27;19907;-78
2022/11/12 00:23:40;;;;;;;;;;;;;;;;;;941172;27;19955;-76
2022/11/12 00:24:11;;;;;;;;;;;;;;;;;;941079;27;19907;-77
2022/11/12 00:24:42;;;;;;;;;;;;;;;;;;940828;27;19908;-78
2022/11/12 00:25:12;;;;;;;;;;;;;;;;;;940854;27;19961;-78
2022/11/12 00:25:46;;;;;;;;;;;;;;;;;;941175;27;19957;-78
2022/11/12 00:26:16;;;;;;;;;;;;;;;;;;940824;27;19911;-78
2022/11/12 00:26:47;;;;;;;;;;;;;;;;;;941148;27;19922;-79
2022/11/12 00:27:21;;;;;;;;;;;;;;;;;;941222;27;19911;-78
2022/11/12 00:27:51;;;;;;;;;;;;;;;;;;941009;27;19911;-77
2022/11/12 00:28:22;;;;;;;;;;;;;;;;;;941589;27;20212;-78
2022/11/12 00:28:55;;;;;;;;;;;;;;;;;;941330;27;20220;-78
2022/11/12 00:29:26;;;;;;;;;;;;;;;;;;941104;27;20113;-78
2022/11/12 00:29:56;;;;;;;;;;;;;;;;;;941373;27;19922;-77
2022/11/12 00:30:30;;;;;;;;;;;;;;;;;;941398;27;19914;-78
2022/11/12 00:31:08;;;;;;;;;;;;;;;;;;940595;27;19907;-78
2022/11/12 00:31:39;;;;;;;;;;;;;;;;;;941143;27;19907;-77
2022/11/12 00:32:09;;;;;;;;;;;;;;;;;;941001;27;20159;-79
2022/11/12 00:32:43;;;;;;;;;;;;;;;;;;941002;27;20220;-77
2022/11/12 00:33:14;;;;;;;;;;;;;;;;;;940786;27;20278;-78
2022/11/12 00:33:44;;;;;;;;;;;;;;;;;;940811;27;19930;-78
2022/11/12 00:34:17;;;;;;;;;;;;;;;;;;940976;27;19926;-77
2022/11/12 00:34:48;;;;;;;;;;;;;;;;;;940977;27;19931;-77
2022/11/12 00:35:19;;;;;;;;;;;;;;;;;;940795;27;20170;-77
2022/11/12 00:35:52;;;;;;;;;;;;;;;;;;940887;27;20156;-78
2022/11/12 00:36:23;;;;;;;;;;;;;;;;;;940941;27;20246;-77
2022/11/12 00:36:53;;;;;;;;;;;;;;;;;;941096;27;19915;-78
2022/11/12 00:37:26;;;;;;;;;;;;;;;;;;940839;27;20186;-79
2022/11/12 00:37:57;;;;;;;;;;;;;;;;;;940881;27;19916;-77
2022/11/12 00:38:29;;;;;;;;;;;;;;;;;;940826;27;19957;-76
2022/11/12 00:39:02;;;;;;;;;;;;;;;;;;940502;27;19912;-78
2022/11/12 00:39:33;;;;;;;;;;;;;;;;;;940636;27;19908;-78
2022/11/12 00:40:04;;;;;;;;;;;;;;;;;;940637;27;19903;-77
2022/11/12 00:40:38;;;;;;;;;;;;;;;;;;940890;27;19959;-78
2022/11/12 00:41:08;;;;;;;;;;;;;;;;;;940640;27;20184;-77
2022/11/12 00:41:39;;;;;;;;;;;;;;;;;;940869;27;19918;-78
2022/11/12 00:42:12;;;;;;;;;;;;;;;;;;940718;27;19916;-78
2022/11/12 00:42:43;;;;;;;;;;;;;;;;;;940746;27;20158;-77
2022/11/12 00:43:13;;;;;;;;;;;;;;;;;;940745;27;19907;-78
2022/11/12 00:43:47;;;;;;;;;;;;;;;;;;940713;27;19961;-77
2022/11/12 00:44:17;;;;;;;;;;;;;;;;;;940697;27;20196;-78
2022/11/12 00:44:48;;;;;;;;;;;;;;;;;;940630;27;19930;-77
2022/11/12 00:45:22;;;;;;;;;;;;;;;;;;940857;27;19915;-77
2022/11/12 00:45:55;;;;;;;;;;;;;;;;;;940931;27;20186;-77
2022/11/12 00:46:26;;;;;;;;;;;;;;;;;;941106;27;19915;-78
2022/11/12 00:46:59;;;;;;;;;;;;;;;;;;941702;27;20117;-78
2022/11/12 00:47:30;;;;;;;;;;;;;;;;;;941520;27;20205;-79
2022/11/12 00:48:00;;;;;;;;;;;;;;;;;;941442;27;19915;-78
2022/11/12 00:48:33;;;;;;;;;;;;;;;;;;941123;27;19915;-78
2022/11/12 00:49:04;;;;;;;;;;;;;;;;;;941143;27;19950;-78
2022/11/12 00:49:35;;;;;;;;;;;;;;;;;;941181;27;19912;-78
2022/11/12 00:50:09;;;;;;;;;;;;;;;;;;941561;27;20169;-76
2022/11/12 00:50:40;;;;;;;;;;;;;;;;;;941600;27;19910;-77
2022/11/12 00:51:10;;;;;;;;;;;;;;;;;;941548;27;19914;-79
2022/11/12 00:51:44;;;;;;;;;;;;;;;;;;941712;27;19915;-78
2022/11/12 00:52:14;;;;;;;;;;;;;;;;;;941760;27;19918;-78
2022/11/12 00:52:45;;;;;;;;;;;;;;;;;;942175;27;19903;-78
2022/11/12 00:53:18;;;;;;;;;;;;;;;;;;942238;27;19960;-78
2022/11/12 00:53:49;;;;;;;;;;;;;;;;;;942192;27;19910;-79
2022/11/12 00:54:20;;;;;;;;;;;;;;;;;;942077;27;19908;-79
2022/11/12 00:54:53;;;;;;;;;;;;;;;;;;942153;27;20240;-78
2022/11/12 00:55:23;;;;;;;;;;;;;;;;;;941746;27;19923;-78
2022/11/12 00:55:59;;;;;;;;;;;;;;;;;;942348;27;19903;-78
2022/11/12 00:56:32;;;;;;;;;;;;;;;;;;941472;27;19903;-79
2022/11/12 00:57:02;;;;;;;;;;;;;;;;;;941713;27;19914;-78
2022/11/12 00:57:33;;;;;;;;;;;;;;;;;;941421;27;19915;-77
2022/11/12 00:58:06;;;;;;;;;;;;;;;;;;941820;27;20255;-77
2022/11/12 00:58:37;;;;;;;;;;;;;;;;;;941416;27;20350;-78
2022/11/12 00:59:08;;;;;;;;;;;;;;;;;;941888;27;19918;-79
2022/11/12 00:59:41;;;;;;;;;;;;;;;;;;941444;27;19964;-78
2022/11/12 01:00:14;;;;;;;;;;;;;;;;;;941686;27;19916;-78
2022/11/12 01:00:45;;;;;;;;;;;;;;;;;;941564;27;19915;-78
2022/11/12 01:01:21;;;;;;;;;;;;;;;;;;941591;27;19907;-77
2022/11/12 01:01:52;;;;;;;;;;;;;;;;;;941520;27;19914;-78
2022/11/12 01:02:22;;;;;;;;;;;;;;;;;;941472;27;20465;-76
2022/11/12 01:02:57;;;;;;;;;;;;;;;;;;941578;27;19907;-78
2022/11/12 01:03:27;;;;;;;;;;;;;;;;;;941435;27;19908;-78
2022/11/12 01:03:58;;;;;;;;;;;;;;;;;;941401;27;19924;-78
2022/11/12 01:04:29;;;;;;;;;;;;;;;;;;941526;27;19908;-78
2022/11/12 01:05:02;;;;;;;;;;;;;;;;;;941681;27;20265;-79
2022/11/12 01:05:33;;;;;;;;;;;;;;;;;;941539;27;19907;-78
2022/11/12 01:06:04;;;;;;;;;;;;;;;;;;941767;27;19904;-79
2022/11/12 01:06:40;;;;;;;;;;;;;;;;;;941388;27;19919;-76
2022/11/12 01:07:11;;;;;;;;;;;;;;;;;;941639;27;19963;-77
2022/11/12 01:07:42;;;;;;;;;;;;;;;;;;941533;27;20199;-78
2022/11/12 01:08:15;;;;;;;;;;;;;;;;;;941507;27;19959;-77
2022/11/12 01:08:47;;;;;;;;;;;;;;;;;;941357;27;19911;-77
2022/11/12 01:09:17;;;;;;;;;;;;;;;;;;941423;27;20469;-78
2022/11/12 01:09:51;;;;;;;;;;;;;;;;;;941625;27;20268;-78
2022/11/12 01:10:21;;;;;;;;;;;;;;;;;;941626;27;19907;-78
2022/11/12 01:10:52;;;;;;;;;;;;;;;;;;941447;27;19904;-77
2022/11/12 01:11:26;;;;;;;;;;;;;;;;;;941515;27;19982;-78
2022/11/12 01:11:57;;;;;;;;;;;;;;;;;;941511;27;19912;-77
2022/11/12 01:12:29;;;;;;;;;;;;;;;;;;941501;27;19907;-78
2022/11/12 01:13:02;;;;;;;;;;;;;;;;;;941731;27;20212;-78
2022/11/12 01:13:33;;;;;;;;;;;;;;;;;;941556;27;19907;-77
2022/11/12 01:14:05;;;;;;;;;;;;;;;;;;941399;27;19907;-78
2022/11/12 01:14:39;;;;;;;;;;;;;;;;;;941457;27;19908;-78
2022/11/12 01:15:10;;;;;;;;;;;;;;;;;;941685;27;19907;-78
2022/11/12 01:15:41;;;;;;;;;;;;;;;;;;941395;27;19911;-78
2022/11/12 01:16:15;;;;;;;;;;;;;;;;;;941310;27;19963;-78
2022/11/12 01:16:48;;;;;;;;;;;;;;;;;;941563;27;19907;-78
2022/11/12 01:17:19;;;;;;;;;;;;;;;;;;941369;27;20197;-76
2022/11/12 01:17:52;;;;;;;;;;;;;;;;;;941492;27;19908;-78
2022/11/12 01:18:23;;;;;;;;;;;;;;;;;;941472;27;20648;-77
2022/11/12 01:18:54;;;;;;;;;;;;;;;;;;941477;27;19934;-78
2022/11/12 01:19:27;;;;;;;;;;;;;;;;;;941767;27;19912;-79
2022/11/12 01:19:58;;;;;;;;;;;;;;;;;;941733;27;19911;-77
2022/11/12 01:20:29;;;;;;;;;;;;;;;;;;941618;27;20156;-76
2022/11/12 01:21:00;;;;;;;;;;;;;;;;;;941489;27;20232;-76
2022/11/12 01:21:34;;;;;;;;;;;;;;;;;;941557;27;19907;-78
2022/11/12 01:22:04;;;;;;;;;;;;;;;;;;941699;27;19907;-78
2022/11/12 01:22:35;;;;;;;;;;;;;;;;;;941368;27;20244;-77
2022/11/12 01:23:06;;;;;;;;;;;;;;;;;;941579;27;19919;-78
2022/11/12 01:23:40;;;;;;;;;;;;;;;;;;941727;27;20258;-78
2022/11/12 01:24:11;;;;;;;;;;;;;;;;;;941380;27;19918;-76
2022/11/12 01:24:41;;;;;;;;;;;;;;;;;;941406;27;19930;-78
2022/11/12 01:25:15;;;;;;;;;;;;;;;;;;941504;27;19915;-78
2022/11/12 01:25:45;;;;;;;;;;;;;;;;;;941487;27;19923;-77
2022/11/12 01:26:17;;;;;;;;;;;;;;;;;;941319;27;19939;-78
2022/11/12 01:26:50;;;;;;;;;;;;;;;;;;941593;27;19968;-78
2022/11/12 01:27:21;;;;;;;;;;;;;;;;;;941547;27;19908;-78
2022/11/12 01:27:52;;;;;;;;;;;;;;;;;;941497;27;19919;-79
2022/11/12 01:28:25;;;;;;;;;;;;;;;;;;941526;27;19964;-77
2022/11/12 01:28:56;;;;;;;;;;;;;;;;;;941428;27;19920;-78
2022/11/12 01:29:27;;;;;;;;;;;;;;;;;;941645;27;19908;-78
2022/11/12 01:30:00;;;;;;;;;;;;;;;;;;941702;27;20147;-79
2022/11/12 01:30:31;;;;;;;;;;;;;;;;;;941623;27;19911;-77
2022/11/12 01:31:08;;;;;;;;;;;;;;;;;;941436;27;19907;-78
2022/11/12 01:31:42;;;;;;;;;;;;;;;;;;941512;27;19959;-79
2022/11/12 01:32:15;;;;;;;;;;;;;;;;;;941314;27;19922;-78
2022/11/12 01:32:46;;;;;;;;;;;;;;;;;;941444;27;19914;-78
2022/11/12 01:33:19;;;;;;;;;;;;;;;;;;941450;27;20132;-78
2022/11/12 01:33:52;;;;;;;;;;;;;;;;;;941612;27;19904;-76
2022/11/12 01:34:22;;;;;;;;;;;;;;;;;;941564;27;20306;-78
2022/11/12 01:34:56;;;;;;;;;;;;;;;;;;941448;27;19922;-79
2022/11/12 01:35:26;;;;;;;;;;;;;;;;;;941656;27;19907;-78
2022/11/12 01:35:57;;;;;;;;;;;;;;;;;;941400;27;19907;-77
2022/11/12 01:36:33;;;;;;;;;;;;;;;;;;941588;27;19915;-78
2022/11/12 01:37:04;;;;;;;;;;;;;;;;;;941390;27;19934;-78
2022/11/12 01:37:35;;;;;;;;;;;;;;;;;;941745;27;20271;-79
2022/11/12 01:38:08;;;;;;;;;;;;;;;;;;941809;27;20275;-78
2022/11/12 01:38:39;;;;;;;;;;;;;;;;;;941329;27;19930;-77
2022/11/12 01:39:10;;;;;;;;;;;;;;;;;;941335;27;20540;-76
2022/11/12 01:39:43;;;;;;;;;;;;;;;;;;941155;27;19964;-78
2022/11/12 01:40:14;;;;;;;;;;;;;;;;;;941443;27;20159;-77
2022/11/12 01:40:45;;;;;;;;;;;;;;;;;;941409;27;19908;-77
2022/11/12 01:41:16;;;;;;;;;;;;;;;;;;941419;27;19953;-77
2022/11/12 01:41:50;;;;;;;;;;;;;;;;;;941544;27;19968;-77
2022/11/12 01:42:22;;;;;;;;;;;;;;;;;;941592;27;19912;-77
2022/11/12 01:42:53;;;;;;;;;;;;;;;;;;941620;27;19907;-78
2022/11/12 01:43:23;;;;;;;;;;;;;;;;;;941220;27;19923;-77
2022/11/12 01:44:10;;;;;;;;;;;;;;;;;;941514;27;19924;-78
2022/11/12 01:44:43;;;;;;;;;;;;;;;;;;941528;27;19918;-77
2022/11/12 01:45:14;;;;;;;;;;;;;;;;;;941422;27;19964;-77
2022/11/12 01:45:50;;;;;;;;;;;;;;;;;;941444;27;19939;-77
2022/11/12 01:46:23;;;;;;;;;;;;;;;;;;941141;27;19923;-78
2022/11/12 01:46:57;;;;;;;;;;;;;;;;;;941361;27;19908;-78
2022/11/12 01:47:36;;;;;;;;;;;;;;;;;;941226;27;19903;-77
2022/11/12 01:48:11;;;;;;;;;;;;;;;;;;941313;27;19907;-78
2022/11/12 01:48:46;;;;;;;;;;;;;;;;;;941447;27;20386;-79
2022/11/12 01:49:22;;;;;;;;;;;;;;;;;;941621;27;19956;-78
2022/11/12 01:49:55;;;;;;;;;;;;;;;;;;941661;27;19919;-78
2022/11/12 01:50:27;;;;;;;;;;;;;;;;;;941293;27;19903;-79
2022/11/12 01:51:00;;;;;;;;;;;;;;;;;;941350;27;19908;-77
2022/11/12 01:51:33;;;;;;;;;;;;;;;;;;941333;27;19919;-78
2022/11/12 01:52:09;;;;;;;;;;;;;;;;;;942122;27;20010;-78
2022/11/12 01:52:45;;;;;;;;;;;;;;;;;;942733;27;19949;-78
2022/11/12 01:53:16;;;;;;;;;;;;;;;;;;941886;27;19934;-78
2022/11/12 01:53:49;;;;;;;;;;;;;;;;;;941955;27;19915;-77
2022/11/12 01:54:23;;;;;;;;;;;;;;;;;;941139;27;19911;-76
2022/11/12 01:54:57;;;;;;;;;;;;;;;;;;941542;27;20242;-78
2022/11/12 01:55:29;;;;;;;;;;;;;;;;;;940990;27;19919;-77
2022/11/12 01:56:04;;;;;;;;;;;;;;;;;;941434;27;19960;-77
2022/11/12 01:56:35;;;;;;;;;;;;;;;;;;941358;27;20353;-79
2022/11/12 01:57:08;;;;;;;;;;;;;;;;;;941180;27;19920;-78
2022/11/12 01:57:43;;;;;;;;;;;;;;;;;;941368;27;19964;-77
2022/11/12 01:58:17;;;;;;;;;;;;;;;;;;941243;27;19907;-78
2022/11/12 01:58:51;;;;;;;;;;;;;;;;;;941407;27;19959;-77
2022/11/12 01:59:28;;;;;;;;;;;;;;;;;;941191;27;19918;-77
2022/11/12 02:00:00;;;;;;;;;;;;;;;;;;941469;27;19907;-78
2022/11/12 02:00:31;;;;;;;;;;;;;;;;;;941851;27;19963;-79
2022/11/12 02:01:05;;;;;;;;;;;;;;;;;;941336;27;20216;-78
2022/11/12 02:01:36;;;;;;;;;;;;;;;;;;941013;27;20241;-77
2022/11/12 02:02:07;;;;;;;;;;;;;;;;;;941428;27;19908;-78
2022/11/12 02:02:44;;;;;;;;;;;;;;;;;;941612;27;19918;-78
2022/11/12 02:03:17;;;;;;;;;;;;;;;;;;941698;27;19907;-77
2022/11/12 02:03:48;;;;;;;;;;;;;;;;;;941242;27;19959;-76
2022/11/12 02:04:19;;;;;;;;;;;;;;;;;;940994;27;19960;-76
2022/11/12 02:04:53;;;;;;;;;;;;;;;;;;941011;27;19918;-76
2022/11/12 02:05:24;;;;;;;;;;;;;;;;;;940935;27;19923;-76
2022/11/12 02:05:56;;;;;;;;;;;;;;;;;;941040;27;19907;-75
2022/11/12 02:06:29;;;;;;;;;;;;;;;;;;941202;27;20262;-78
2022/11/12 02:07:01;;;;;;;;;;;;;;;;;;941647;27;19907;-78
2022/11/12 02:07:32;;;;;;;;;;;;;;;;;;941636;27;19908;-76
2022/11/12 02:08:04;;;;;;;;;;;;;;;;;;942066;27;20211;-78
2022/11/12 02:08:39;;;;;;;;;;;;;;;;;;941844;27;19907;-77
2022/11/12 02:09:10;;;;;;;;;;;;;;;;;;941767;27;19903;-78
2022/11/12 02:09:43;;;;;;;;;;;;;;;;;;941675;27;20144;-78
2022/11/12 02:10:14;;;;;;;;;;;;;;;;;;941756;27;19907;-78
2022/11/12 02:10:44;;;;;;;;;;;;;;;;;;941279;27;19907;-77
2022/11/12 02:11:16;;;;;;;;;;;;;;;;;;941394;27;19914;-76
2022/11/12 02:11:49;;;;;;;;;;;;;;;;;;941274;27;19961;-77
2022/11/12 02:13:59;;;;;;;;;;;;;;;;;;941529;27;20209;-79
2022/11/12 02:14:31;;;;;;;;;;;;;;;;;;941429;27;20174;-77
2022/11/12 02:15:02;;;;;;;;;;;;;;;;;;941321;27;20220;-77
2022/11/12 02:15:36;;;;;;;;;;;;;;;;;;941370;27;19907;-78
2022/11/12 02:16:08;;;;;;;;;;;;;;;;;;941449;27;20247;-77
2022/11/12 02:16:40;;;;;;;;;;;;;;;;;;941230;27;19915;-78
2022/11/12 02:17:13;;;;;;;;;;;;;;;;;;941329;27;19915;-78
2022/11/12 02:17:46;;;;;;;;;;;;;;;;;;941216;27;19918;-77
2022/11/12 02:18:17;;;;;;;;;;;;;;;;;;941397;27;19918;-78
2022/11/12 02:18:50;;;;;;;;;;;;;;;;;;941452;27;19914;-78
2022/11/12 02:19:21;;;;;;;;;;;;;;;;;;941236;27;20147;-79
2022/11/12 02:19:52;;;;;;;;;;;;;;;;;;941343;27;19904;-78
2022/11/12 02:20:23;;;;;;;;;;;;;;;;;;941324;27;20492;-76
2022/11/12 02:20:57;;;;;;;;;;;;;;;;;;941056;27;20159;-78
2022/11/12 02:21:30;;;;;;;;;;;;;;;;;;941206;27;19907;-78
2022/11/12 02:22:01;;;;;;;;;;;;;;;;;;941303;27;19974;-78
2022/11/12 02:22:34;;;;;;;;;;;;;;;;;;941227;27;19955;-77
2022/11/12 02:23:05;;;;;;;;;;;;;;;;;;941331;27;19913;-77
2022/11/12 02:23:36;;;;;;;;;;;;;;;;;;941513;27;19915;-77
2022/11/12 02:24:24;;;;;;;;;;;;;;;;;;941266;27;19916;-78
2022/11/12 02:24:55;;;;;;;;;;;;;;;;;;940861;27;19918;-77
2022/11/12 02:25:26;;;;;;;;;;;;;;;;;;941164;27;19908;-76
2022/11/12 02:26:00;;;;;;;;;;;;;;;;;;941171;27;19907;-77
2022/11/12 02:26:32;;;;;;;;;;;;;;;;;;941110;27;19907;-77
2022/11/12 02:27:05;;;;;;;;;;;;;;;;;;940908;27;19919;-76
2022/11/12 02:27:38;;;;;;;;;;;;;;;;;;940995;27;19907;-77
2022/11/12 02:28:09;;;;;;;;;;;;;;;;;;941119;27;20162;-76
2022/11/12 02:28:39;;;;;;;;;;;;;;;;;;941038;27;19908;-77
2022/11/12 02:29:13;;;;;;;;;;;;;;;;;;940909;27;19907;-77
2022/11/12 02:29:45;;;;;;;;;;;;;;;;;;941027;27;20213;-77
2022/11/12 02:30:16;;;;;;;;;;;;;;;;;;940914;27;19956;-77
2022/11/12 02:30:50;;;;;;;;;;;;;;;;;;941025;27;19953;-78
2022/11/12 02:31:21;;;;;;;;;;;;;;;;;;941086;27;20126;-77
2022/11/12 02:31:52;;;;;;;;;;;;;;;;;;941220;27;19918;-76
2022/11/12 02:32:25;;;;;;;;;;;;;;;;;;942172;27;19907;-78
2022/11/12 02:32:56;;;;;;;;;;;;;;;;;;942625;27;20197;-80
2022/11/12 02:33:26;;;;;;;;;;;;;;;;;;943125;27;19908;-80
2022/11/12 02:33:59;;;;;;;;;;;;;;;;;;942321;27;19915;-76
2022/11/12 02:34:30;;;;;;;;;;;;;;;;;;941422;27;20124;-77
2022/11/12 02:35:01;;;;;;;;;;;;;;;;;;941425;27;19914;-76
2022/11/12 02:35:32;;;;;;;;;;;;;;;;;;941711;27;19907;-77
2022/11/12 02:36:05;;;;;;;;;;;;;;;;;;941697;27;19915;-78
2022/11/12 02:36:38;;;;;;;;;;;;;;;;;;941480;27;20155;-77
2022/11/12 02:37:09;;;;;;;;;;;;;;;;;;941261;27;19908;-77
2022/11/12 02:37:42;;;;;;;;;;;;;;;;;;941508;27;20273;-77
2022/11/12 02:38:13;;;;;;;;;;;;;;;;;;941678;27;19908;-78
2022/11/12 02:38:44;;;;;;;;;;;;;;;;;;941505;27;19918;-78
2022/11/12 02:39:17;;;;;;;;;;;;;;;;;;941364;27;19923;-77
2022/11/12 02:39:48;;;;;;;;;;;;;;;;;;941420;27;19959;-76
2022/11/12 02:40:18;;;;;;;;;;;;;;;;;;941113;27;19915;-79
2022/11/12 02:40:52;;;;;;;;;;;;;;;;;;941233;27;20144;-77
2022/11/12 02:41:22;;;;;;;;;;;;;;;;;;941484;27;19907;-78
2022/11/12 02:41:53;;;;;;;;;;;;;;;;;;941413;27;20232;-78
2022/11/12 02:42:26;;;;;;;;;;;;;;;;;;941167;27;19915;-77
2022/11/12 02:42:57;;;;;;;;;;;;;;;;;;941435;27;19957;-78
2022/11/12 02:43:28;;;;;;;;;;;;;;;;;;941426;27;20197;-77
2022/11/12 02:43:59;;;;;;;;;;;;;;;;;;941243;27;19915;-79
2022/11/12 02:44:32;;;;;;;;;;;;;;;;;;941201;27;19923;-79
2022/11/12 02:45:05;;;;;;;;;;;;;;;;;;941348;27;20254;-77
2022/11/12 02:45:35;;;;;;;;;;;;;;;;;;941415;27;19907;-78
2022/11/12 02:46:09;;;;;;;;;;;;;;;;;;941349;27;19907;-78
2022/11/12 02:46:40;;;;;;;;;;;;;;;;;;941589;27;19907;-78
2022/11/12 02:47:10;;;;;;;;;;;;;;;;;;941400;27;19911;-77
2022/11/12 02:47:44;;;;;;;;;;;;;;;;;;941554;27;19936;-78
2022/11/12 02:48:15;;;;;;;;;;;;;;;;;;941352;27;19908;-77
2022/11/12 02:48:45;;;;;;;;;;;;;;;;;;941381;27;20233;-78
2022/11/12 02:49:19;;;;;;;;;;;;;;;;;;941510;27;19912;-77
2022/11/12 02:49:49;;;;;;;;;;;;;;;;;;941876;27;19904;-77
2022/11/12 02:50:20;;;;;;;;;;;;;;;;;;941654;27;19907;-76
2022/11/12 02:50:53;;;;;;;;;;;;;;;;;;941700;27;19931;-78
2022/11/12 02:51:24;;;;;;;;;;;;;;;;;;941800;27;19911;-76
2022/11/12 02:51:57;;;;;;;;;;;;;;;;;;941744;27;19907;-77
2022/11/12 02:52:31;;;;;;;;;;;;;;;;;;941685;27;20205;-77
2022/11/12 02:53:02;;;;;;;;;;;;;;;;;;941051;27;19907;-77
2022/11/12 02:53:32;;;;;;;;;;;;;;;;;;940889;27;19918;-77
2022/11/12 02:54:06;;;;;;;;;;;;;;;;;;941116;27;19907;-77
2022/11/12 02:54:36;;;;;;;;;;;;;;;;;;941122;27;19903;-77
2022/11/12 02:55:09;;;;;;;;;;;;;;;;;;940988;27;19941;-77
2022/11/12 02:55:41;;;;;;;;;;;;;;;;;;941063;27;19907;-77
2022/11/12 02:56:14;;;;;;;;;;;;;;;;;;941093;27;19951;-77
2022/11/12 02:56:45;;;;;;;;;;;;;;;;;;940952;27;19919;-77
2022/11/12 02:57:16;;;;;;;;;;;;;;;;;;940855;27;19903;-77
2022/11/12 02:57:46;;;;;;;;;;;;;;;;;;941261;27;19919;-77
2022/11/12 02:58:21;;;;;;;;;;;;;;;;;;941061;27;19925;-76
2022/11/12 02:58:51;;;;;;;;;;;;;;;;;;941161;27;20212;-77
2022/11/12 02:59:22;;;;;;;;;;;;;;;;;;941251;27;19925;-76
2022/11/12 02:59:55;;;;;;;;;;;;;;;;;;941176;27;19922;-76
2022/11/12 03:00:26;;;;;;;;;;;;;;;;;;940859;27;19927;-78
2022/11/12 03:00:57;;;;;;;;;;;;;;;;;;941075;27;19907;-77
2022/11/12 03:01:30;;;;;;;;;;;;;;;;;;941075;27;20324;-78
2022/11/12 03:02:01;;;;;;;;;;;;;;;;;;940941;27;19908;-77
2022/11/12 03:02:31;;;;;;;;;;;;;;;;;;941174;27;19918;-77
2022/11/12 03:03:02;;;;;;;;;;;;;;;;;;941335;27;20267;-77
2022/11/12 03:03:35;;;;;;;;;;;;;;;;;;941108;27;20191;-76
2022/11/12 03:04:06;;;;;;;;;;;;;;;;;;941084;27;19919;-76
2022/11/12 03:04:37;;;;;;;;;;;;;;;;;;941002;27;19949;-78
2022/11/12 03:05:08;;;;;;;;;;;;;;;;;;940942;27;20248;-76
2022/11/12 03:05:41;;;;;;;;;;;;;;;;;;941052;27;19967;-77
2022/11/12 03:06:12;;;;;;;;;;;;;;;;;;941121;27;19907;-77
2022/11/12 03:06:42;;;;;;;;;;;;;;;;;;940944;27;19907;-78
2022/11/12 03:07:15;;;;;;;;;;;;;;;;;;941217;27;19907;-77
2022/11/12 03:07:49;;;;;;;;;;;;;;;;;;940977;27;19910;-78
2022/11/12 03:08:19;;;;;;;;;;;;;;;;;;940876;27;19903;-76
2022/11/12 03:08:50;;;;;;;;;;;;;;;;;;940929;27;19918;-78
2022/11/12 03:09:23;;;;;;;;;;;;;;;;;;940999;27;19968;-77
2022/11/12 03:09:54;;;;;;;;;;;;;;;;;;940874;27;19917;-76
2022/11/12 03:10:25;;;;;;;;;;;;;;;;;;941150;27;19911;-77
2022/11/12 03:10:58;;;;;;;;;;;;;;;;;;941034;27;20117;-77
2022/11/12 03:11:29;;;;;;;;;;;;;;;;;;940780;27;19903;-77
2022/11/12 03:12:00;;;;;;;;;;;;;;;;;;940893;27;19903;-77
2022/11/12 03:12:33;;;;;;;;;;;;;;;;;;940965;27;19908;-76
2022/11/12 03:13:04;;;;;;;;;;;;;;;;;;940540;27;19907;-78
2022/11/12 03:13:35;;;;;;;;;;;;;;;;;;940821;27;19953;-76
2022/11/12 03:14:08;;;;;;;;;;;;;;;;;;940987;27;20217;-77
2022/11/12 03:14:39;;;;;;;;;;;;;;;;;;940639;27;19914;-77
2022/11/12 03:15:10;;;;;;;;;;;;;;;;;;940871;27;19915;-76
2022/11/12 03:15:43;;;;;;;;;;;;;;;;;;940965;27;19956;-77
2022/11/12 03:16:14;;;;;;;;;;;;;;;;;;940864;27;19907;-77
2022/11/12 03:16:44;;;;;;;;;;;;;;;;;;940596;27;19903;-76
2022/11/12 03:17:17;;;;;;;;;;;;;;;;;;941054;27;19927;-77
2022/11/12 03:17:48;;;;;;;;;;;;;;;;;;940748;27;19951;-78
2022/11/12 03:18:19;;;;;;;;;;;;;;;;;;941025;27;20135;-77
2022/11/12 03:18:52;;;;;;;;;;;;;;;;;;940912;27;19953;-77
2022/11/12 03:19:23;;;;;;;;;;;;;;;;;;940937;27;19918;-78
2022/11/12 03:19:53;;;;;;;;;;;;;;;;;;940953;27;19915;-77
2022/11/12 03:20:24;;;;;;;;;;;;;;;;;;940997;27;20256;-77
2022/11/12 03:20:57;;;;;;;;;;;;;;;;;;940484;27;20212;-77
2022/11/12 03:21:28;;;;;;;;;;;;;;;;;;940910;27;19917;-75
2022/11/12 03:21:59;;;;;;;;;;;;;;;;;;940948;27;19918;-77
2022/11/12 03:22:32;;;;;;;;;;;;;;;;;;941074;27;20208;-77
2022/11/12 03:23:06;;;;;;;;;;;;;;;;;;940755;27;19927;-76
2022/11/12 03:23:37;;;;;;;;;;;;;;;;;;940991;27;19907;-76
2022/11/12 03:24:07;;;;;;;;;;;;;;;;;;940753;27;19923;-77
2022/11/12 03:24:38;;;;;;;;;;;;;;;;;;940844;27;19914;-78
2022/11/12 03:25:11;;;;;;;;;;;;;;;;;;940740;27;19923;-78
2022/11/12 03:25:42;;;;;;;;;;;;;;;;;;940885;27;19918;-76
2022/11/12 03:26:13;;;;;;;;;;;;;;;;;;940934;27;19908;-76
2022/11/12 03:26:46;;;;;;;;;;;;;;;;;;940872;27;19919;-77
2022/11/12 03:27:17;;;;;;;;;;;;;;;;;;940762;27;19914;-78
2022/11/12 03:27:47;;;;;;;;;;;;;;;;;;940714;27;19918;-77
2022/11/12 03:28:18;;;;;;;;;;;;;;;;;;940821;27;19907;-77
2022/11/12 03:28:52;;;;;;;;;;;;;;;;;;940830;27;19950;-76
2022/11/12 03:29:23;;;;;;;;;;;;;;;;;;940759;27;19923;-76
2022/11/12 03:29:53;;;;;;;;;;;;;;;;;;940584;27;19967;-78
2022/11/12 03:30:25;;;;;;;;;;;;;;;;;;941011;27;19972;-77
2022/11/12 03:31:00;;;;;;;;;;;;;;;;;;940802;27;20212;-78
2022/11/12 03:31:31;;;;;;;;;;;;;;;;;;940909;27;19907;-77
2022/11/12 03:32:01;;;;;;;;;;;;;;;;;;940785;27;19911;-77
2022/11/12 03:32:34;;;;;;;;;;;;;;;;;;940807;27;20330;-77
2022/11/12 03:33:05;;;;;;;;;;;;;;;;;;940672;27;19911;-77
2022/11/12 03:33:36;;;;;;;;;;;;;;;;;;940769;27;20414;-77
2022/11/12 03:34:09;;;;;;;;;;;;;;;;;;940722;27;19923;-77
2022/11/12 03:34:40;;;;;;;;;;;;;;;;;;940938;27;20205;-77
2022/11/12 03:35:11;;;;;;;;;;;;;;;;;;941072;27;19907;-78
2022/11/12 03:35:44;;;;;;;;;;;;;;;;;;941967;27;19953;-79
2022/11/12 03:36:15;;;;;;;;;;;;;;;;;;941812;27;19903;-77
2022/11/12 03:36:45;;;;;;;;;;;;;;;;;;942003;27;19903;-78
2022/11/12 03:37:16;;;;;;;;;;;;;;;;;;941966;27;19914;-78
2022/11/12 03:37:52;;;;;;;;;;;;;;;;;;942099;27;19915;-77
2022/11/12 03:38:23;;;;;;;;;;;;;;;;;;942213;27;19908;-79
2022/11/12 03:38:54;;;;;;;;;;;;;;;;;;942267;27;19903;-79
2022/11/12 03:39:27;;;;;;;;;;;;;;;;;;942550;27;19959;-79
2022/11/12 03:39:58;;;;;;;;;;;;;;;;;;941327;27;19914;-77
2022/11/12 03:40:28;;;;;;;;;;;;;;;;;;940926;27;20136;-76
2022/11/12 03:41:02;;;;;;;;;;;;;;;;;;940837;27;19960;-77
2022/11/12 03:41:32;;;;;;;;;;;;;;;;;;940955;27;20117;-77
2022/11/12 03:42:03;;;;;;;;;;;;;;;;;;940929;27;19907;-76
2022/11/12 03:42:34;;;;;;;;;;;;;;;;;;940819;27;19931;-77
2022/11/12 03:43:07;;;;;;;;;;;;;;;;;;940846;27;19955;-77
2022/11/12 03:43:38;;;;;;;;;;;;;;;;;;940753;27;19924;-76
2022/11/12 03:44:08;;;;;;;;;;;;;;;;;;940791;27;19907;-77